sensor_id;sensor_type;location;lat;lon;timestamp;temperature;humidity
49379;DHT22;35254;47.990;-1.608;2023-06-22T00:02:17;25.90;62.30
49379;DHT22;35254;47.990;-1.608;2023-06-22T00:04:43;25.90;62.10
49379;DHT22;35254;47.990;-1.608;2023-06-22T00:07:09;25.90;61.90
49379;DHT22;35254;47.990;-1.608;2023-06-22T00:09:35;25.80;62.20
49379;DHT22;35254;47.990;-1.608;2023-06-22T00:12:01;25.90;62.00
49379;DHT22;35254;47.990;-1.608;2023-06-22T00:14:27;25.90;61.90
49379;DHT22;35254;47.990;-1.608;2023-06-22T00:16:53;25.80;62.10
49379;DHT22;35254;47.990;-1.608;2023-06-22T00:19:23;25.90;61.90
49379;DHT22;35254;47.990;-1.608;2023-06-22T00:21:52;25.80;61.60
49379;DHT22;35254;47.990;-1.608;2023-06-22T00:24:23;25.80;61.40
49379;DHT22;35254;47.990;-1.608;2023-06-22T00:26:49;25.80;61.50
49379;DHT22;35254;47.990;-1.608;2023-06-22T00:29:15;25.80;61.60
49379;DHT22;35254;47.990;-1.608;2023-06-22T00:31:42;25.80;61.40
49379;DHT22;35254;47.990;-1.608;2023-06-22T00:34:08;25.80;61.70
49379;DHT22;35254;47.990;-1.608;2023-06-22T00:36:34;25.80;61.30
49379;DHT22;35254;47.990;-1.608;2023-06-22T00:39:01;25.80;61.20
49379;DHT22;35254;47.990;-1.608;2023-06-22T00:41:26;25.80;61.60
49379;DHT22;35254;47.990;-1.608;2023-06-22T00:43:54;25.80;61.50
49379;DHT22;35254;47.990;-1.608;2023-06-22T00:46:20;25.80;61.40
49379;DHT22;35254;47.990;-1.608;2023-06-22T00:48:46;25.80;61.50
49379;DHT22;35254;47.990;-1.608;2023-06-22T00:51:12;25.80;61.40
49379;DHT22;35254;47.990;-1.608;2023-06-22T00:53:37;25.80;61.10
49379;DHT22;35254;47.990;-1.608;2023-06-22T00:56:04;25.80;61.10
49379;DHT22;35254;47.990;-1.608;2023-06-22T00:58:31;25.80;61.20
49379;DHT22;35254;47.990;-1.608;2023-06-22T01:00:57;25.80;61.20
49379;DHT22;35254;47.990;-1.608;2023-06-22T01:03:23;25.80;61.00
49379;DHT22;35254;47.990;-1.608;2023-06-22T01:05:49;25.80;60.90
49379;DHT22;35254;47.990;-1.608;2023-06-22T01:08:37;25.80;61.00
49379;DHT22;35254;47.990;-1.608;2023-06-22T01:11:37;25.80;61.00
49379;DHT22;35254;47.990;-1.608;2023-06-22T01:14:08;25.80;61.00
49379;DHT22;35254;47.990;-1.608;2023-06-22T01:16:41;25.80;60.90
49379;DHT22;35254;47.990;-1.608;2023-06-22T01:19:46;25.80;60.80
49379;DHT22;35254;47.990;-1.608;2023-06-22T01:22:16;25.70;61.10
49379;DHT22;35254;47.990;-1.608;2023-06-22T01:27:32;25.80;60.80
49379;DHT22;35254;47.990;-1.608;2023-06-22T01:29:59;25.80;60.80
49379;DHT22;35254;47.990;-1.608;2023-06-22T01:32:32;25.80;61.00
49379;DHT22;35254;47.990;-1.608;2023-06-22T01:35:00;25.80;60.90
49379;DHT22;35254;47.990;-1.608;2023-06-22T01:37:29;25.80;60.90
49379;DHT22;35254;47.990;-1.608;2023-06-22T01:39:58;25.80;60.80
49379;DHT22;35254;47.990;-1.608;2023-06-22T01:42:24;25.80;60.80
49379;DHT22;35254;47.990;-1.608;2023-06-22T01:44:52;25.80;60.80
49379;DHT22;35254;47.990;-1.608;2023-06-22T01:47:18;25.80;60.60
49379;DHT22;35254;47.990;-1.608;2023-06-22T01:49:45;25.80;60.70
49379;DHT22;35254;47.990;-1.608;2023-06-22T01:52:11;25.80;60.30
49379;DHT22;35254;47.990;-1.608;2023-06-22T01:54:39;25.80;60.80
49379;DHT22;35254;47.990;-1.608;2023-06-22T01:57:05;25.80;60.70
49379;DHT22;35254;47.990;-1.608;2023-06-22T01:59:34;25.80;60.50
49379;DHT22;35254;47.990;-1.608;2023-06-22T02:02:08;25.80;60.60
49379;DHT22;35254;47.990;-1.608;2023-06-22T02:04:59;25.80;60.60
49379;DHT22;35254;47.990;-1.608;2023-06-22T02:07:30;25.80;60.60
49379;DHT22;35254;47.990;-1.608;2023-06-22T02:09:58;25.80;60.70
49379;DHT22;35254;47.990;-1.608;2023-06-22T02:12:25;25.70;60.50
49379;DHT22;35254;47.990;-1.608;2023-06-22T02:14:53;25.70;60.50
49379;DHT22;35254;47.990;-1.608;2023-06-22T02:17:19;25.70;60.30
49379;DHT22;35254;47.990;-1.608;2023-06-22T02:19:45;25.70;60.20
49379;DHT22;35254;47.990;-1.608;2023-06-22T02:22:11;25.70;60.10
49379;DHT22;35254;47.990;-1.608;2023-06-22T02:24:38;25.70;59.90
49379;DHT22;35254;47.990;-1.608;2023-06-22T02:27:04;25.70;60.20
49379;DHT22;35254;47.990;-1.608;2023-06-22T02:29:32;25.70;60.10
49379;DHT22;35254;47.990;-1.608;2023-06-22T02:31:57;25.70;60.60
49379;DHT22;35254;47.990;-1.608;2023-06-22T02:34:24;25.70;60.30
49379;DHT22;35254;47.990;-1.608;2023-06-22T02:36:50;25.70;60.00
49379;DHT22;35254;47.990;-1.608;2023-06-22T02:39:25;25.70;60.00
49379;DHT22;35254;47.990;-1.608;2023-06-22T02:41:52;25.70;60.00
49379;DHT22;35254;47.990;-1.608;2023-06-22T02:44:18;25.70;59.90
49379;DHT22;35254;47.990;-1.608;2023-06-22T02:46:44;25.70;59.90
49379;DHT22;35254;47.990;-1.608;2023-06-22T02:49:10;25.70;60.10
49379;DHT22;35254;47.990;-1.608;2023-06-22T02:51:39;25.70;59.90
49379;DHT22;35254;47.990;-1.608;2023-06-22T02:54:05;25.70;59.90
49379;DHT22;35254;47.990;-1.608;2023-06-22T02:56:31;25.70;60.00
49379;DHT22;35254;47.990;-1.608;2023-06-22T02:58:57;25.70;59.80
49379;DHT22;35254;47.990;-1.608;2023-06-22T03:01:26;25.70;60.20
49379;DHT22;35254;47.990;-1.608;2023-06-22T03:03:54;25.70;60.10
49379;DHT22;35254;47.990;-1.608;2023-06-22T03:06:20;25.70;60.10
49379;DHT22;35254;47.990;-1.608;2023-06-22T03:08:49;25.70;59.90
49379;DHT22;35254;47.990;-1.608;2023-06-22T03:11:15;25.70;60.20
49379;DHT22;35254;47.990;-1.608;2023-06-22T03:13:41;25.70;60.20
49379;DHT22;35254;47.990;-1.608;2023-06-22T03:16:07;25.70;60.40
49379;DHT22;35254;47.990;-1.608;2023-06-22T03:18:32;25.70;60.30
49379;DHT22;35254;47.990;-1.608;2023-06-22T03:20:58;25.70;59.80
49379;DHT22;35254;47.990;-1.608;2023-06-22T03:23:24;25.60;59.90
49379;DHT22;35254;47.990;-1.608;2023-06-22T03:25:49;25.70;59.90
49379;DHT22;35254;47.990;-1.608;2023-06-22T03:28:15;25.70;60.00
49379;DHT22;35254;47.990;-1.608;2023-06-22T03:30:41;25.70;60.10
49379;DHT22;35254;47.990;-1.608;2023-06-22T03:33:07;25.70;59.90
49379;DHT22;35254;47.990;-1.608;2023-06-22T03:35:32;25.60;60.00
49379;DHT22;35254;47.990;-1.608;2023-06-22T03:37:58;25.70;59.90
49379;DHT22;35254;47.990;-1.608;2023-06-22T03:40:24;25.60;60.20
49379;DHT22;35254;47.990;-1.608;2023-06-22T03:42:49;25.60;60.00
49379;DHT22;35254;47.990;-1.608;2023-06-22T03:45:15;25.70;60.00
49379;DHT22;35254;47.990;-1.608;2023-06-22T03:47:41;25.60;60.30
49379;DHT22;35254;47.990;-1.608;2023-06-22T03:50:07;25.60;59.90
49379;DHT22;35254;47.990;-1.608;2023-06-22T03:52:33;25.60;60.20
49379;DHT22;35254;47.990;-1.608;2023-06-22T03:54:58;25.60;60.20
49379;DHT22;35254;47.990;-1.608;2023-06-22T03:57:24;25.70;60.20
49379;DHT22;35254;47.990;-1.608;2023-06-22T03:59:50;25.60;60.00
49379;DHT22;35254;47.990;-1.608;2023-06-22T04:02:15;25.60;60.00
49379;DHT22;35254;47.990;-1.608;2023-06-22T04:04:41;25.60;60.00
49379;DHT22;35254;47.990;-1.608;2023-06-22T04:07:06;25.60;60.10
49379;DHT22;35254;47.990;-1.608;2023-06-22T04:09:33;25.60;60.10
49379;DHT22;35254;47.990;-1.608;2023-06-22T04:11:58;25.60;60.60
49379;DHT22;35254;47.990;-1.608;2023-06-22T04:14:24;25.60;60.50
49379;DHT22;35254;47.990;-1.608;2023-06-22T04:16:51;25.60;60.40
49379;DHT22;35254;47.990;-1.608;2023-06-22T04:19:16;25.60;60.20
49379;DHT22;35254;47.990;-1.608;2023-06-22T04:21:43;25.60;60.50
49379;DHT22;35254;47.990;-1.608;2023-06-22T04:24:10;25.60;60.40
49379;DHT22;35254;47.990;-1.608;2023-06-22T04:26:36;25.60;60.10
49379;DHT22;35254;47.990;-1.608;2023-06-22T04:29:05;25.60;60.00
49379;DHT22;35254;47.990;-1.608;2023-06-22T04:31:32;25.60;60.50
49379;DHT22;35254;47.990;-1.608;2023-06-22T04:34:02;25.60;60.50
49379;DHT22;35254;47.990;-1.608;2023-06-22T04:36:41;25.60;60.50
49379;DHT22;35254;47.990;-1.608;2023-06-22T04:39:10;25.60;60.20
49379;DHT22;35254;47.990;-1.608;2023-06-22T04:41:40;25.60;60.00
49379;DHT22;35254;47.990;-1.608;2023-06-22T04:44:16;25.60;60.10
49379;DHT22;35254;47.990;-1.608;2023-06-22T04:46:52;25.60;60.20
49379;DHT22;35254;47.990;-1.608;2023-06-22T04:49:25;25.60;60.20
49379;DHT22;35254;47.990;-1.608;2023-06-22T04:51:58;25.60;60.00
49379;DHT22;35254;47.990;-1.608;2023-06-22T04:54:23;25.60;60.00
49379;DHT22;35254;47.990;-1.608;2023-06-22T04:56:49;25.50;60.10
49379;DHT22;35254;47.990;-1.608;2023-06-22T04:59:29;25.50;60.00
49379;DHT22;35254;47.990;-1.608;2023-06-22T05:01:56;25.60;60.00
49379;DHT22;35254;47.990;-1.608;2023-06-22T05:04:23;25.50;59.90
49379;DHT22;35254;47.990;-1.608;2023-06-22T05:06:50;25.50;59.90
49379;DHT22;35254;47.990;-1.608;2023-06-22T05:09:15;25.50;60.00
49379;DHT22;35254;47.990;-1.608;2023-06-22T05:11:42;25.50;60.00
49379;DHT22;35254;47.990;-1.608;2023-06-22T05:14:08;25.50;59.90
49379;DHT22;35254;47.990;-1.608;2023-06-22T05:16:34;25.50;60.00
49379;DHT22;35254;47.990;-1.608;2023-06-22T05:18:59;25.50;60.20
49379;DHT22;35254;47.990;-1.608;2023-06-22T05:21:27;25.50;60.00
49379;DHT22;35254;47.990;-1.608;2023-06-22T05:23:53;25.50;59.90
49379;DHT22;35254;47.990;-1.608;2023-06-22T05:26:20;25.50;60.10
49379;DHT22;35254;47.990;-1.608;2023-06-22T05:28:46;25.50;60.10
49379;DHT22;35254;47.990;-1.608;2023-06-22T05:31:13;25.50;59.90
49379;DHT22;35254;47.990;-1.608;2023-06-22T05:33:40;25.50;60.00
49379;DHT22;35254;47.990;-1.608;2023-06-22T05:36:06;25.50;60.00
49379;DHT22;35254;47.990;-1.608;2023-06-22T05:38:32;25.50;59.80
49379;DHT22;35254;47.990;-1.608;2023-06-22T05:40:57;25.50;59.80
49379;DHT22;35254;47.990;-1.608;2023-06-22T05:43:23;25.50;60.00
49379;DHT22;35254;47.990;-1.608;2023-06-22T05:45:48;25.50;60.00
49379;DHT22;35254;47.990;-1.608;2023-06-22T05:48:14;25.50;60.00
49379;DHT22;35254;47.990;-1.608;2023-06-22T05:50:40;25.40;59.80
49379;DHT22;35254;47.990;-1.608;2023-06-22T05:53:05;25.40;59.90
49379;DHT22;35254;47.990;-1.608;2023-06-22T05:55:32;25.40;59.80
49379;DHT22;35254;47.990;-1.608;2023-06-22T05:57:58;25.40;59.90
49379;DHT22;35254;47.990;-1.608;2023-06-22T06:00:24;25.40;60.00
49379;DHT22;35254;47.990;-1.608;2023-06-22T06:02:50;25.40;60.30
49379;DHT22;35254;47.990;-1.608;2023-06-22T06:05:15;25.40;61.10
49379;DHT22;35254;47.990;-1.608;2023-06-22T06:07:42;25.40;61.60
49379;DHT22;35254;47.990;-1.608;2023-06-22T06:10:08;25.40;62.00
49379;DHT22;35254;47.990;-1.608;2023-06-22T06:12:34;25.50;61.60
49379;DHT22;35254;47.990;-1.608;2023-06-22T06:15:00;25.40;61.80
49379;DHT22;35254;47.990;-1.608;2023-06-22T06:17:26;25.50;61.00
49379;DHT22;35254;47.990;-1.608;2023-06-22T06:19:52;25.40;62.10
49379;DHT22;35254;47.990;-1.608;2023-06-22T06:22:18;25.40;60.20
49379;DHT22;35254;47.990;-1.608;2023-06-22T06:24:45;25.40;60.10
49379;DHT22;35254;47.990;-1.608;2023-06-22T06:27:11;25.40;59.10
49379;DHT22;35254;47.990;-1.608;2023-06-22T06:29:36;25.40;59.20
49379;DHT22;35254;47.990;-1.608;2023-06-22T06:32:02;25.40;59.50
49379;DHT22;35254;47.990;-1.608;2023-06-22T06:34:28;25.30;59.50
49379;DHT22;35254;47.990;-1.608;2023-06-22T06:36:53;25.30;57.40
49379;DHT22;35254;47.990;-1.608;2023-06-22T06:39:19;25.30;56.80
49379;DHT22;35254;47.990;-1.608;2023-06-22T06:41:45;25.30;56.40
49379;DHT22;35254;47.990;-1.608;2023-06-22T06:44:11;25.30;56.20
49379;DHT22;35254;47.990;-1.608;2023-06-22T06:46:37;25.30;56.50
49379;DHT22;35254;47.990;-1.608;2023-06-22T06:49:03;25.20;55.90
49379;DHT22;35254;47.990;-1.608;2023-06-22T06:51:29;25.20;56.20
49379;DHT22;35254;47.990;-1.608;2023-06-22T06:53:55;25.20;56.10
49379;DHT22;35254;47.990;-1.608;2023-06-22T06:56:20;25.20;55.60
49379;DHT22;35254;47.990;-1.608;2023-06-22T06:58:46;25.20;56.00
49379;DHT22;35254;47.990;-1.608;2023-06-22T07:01:12;25.20;55.70
49379;DHT22;35254;47.990;-1.608;2023-06-22T07:03:38;25.20;55.20
49379;DHT22;35254;47.990;-1.608;2023-06-22T07:06:04;25.10;55.10
49379;DHT22;35254;47.990;-1.608;2023-06-22T07:08:29;25.00;55.40
49379;DHT22;35254;47.990;-1.608;2023-06-22T07:10:55;25.00;55.70
49379;DHT22;35254;47.990;-1.608;2023-06-22T07:13:21;25.00;54.90
49379;DHT22;35254;47.990;-1.608;2023-06-22T07:15:47;24.90;55.80
49379;DHT22;35254;47.990;-1.608;2023-06-22T07:18:12;24.90;55.30
49379;DHT22;35254;47.990;-1.608;2023-06-22T07:20:38;24.90;55.40
49379;DHT22;35254;47.990;-1.608;2023-06-22T07:23:04;24.90;56.10
49379;DHT22;35254;47.990;-1.608;2023-06-22T07:25:30;24.90;55.40
49379;DHT22;35254;47.990;-1.608;2023-06-22T07:27:58;24.90;55.30
49379;DHT22;35254;47.990;-1.608;2023-06-22T07:30:24;24.90;55.60
49379;DHT22;35254;47.990;-1.608;2023-06-22T07:32:50;24.80;55.80
49379;DHT22;35254;47.990;-1.608;2023-06-22T07:35:15;24.80;56.20
49379;DHT22;35254;47.990;-1.608;2023-06-22T07:37:42;24.80;55.70
49379;DHT22;35254;47.990;-1.608;2023-06-22T07:40:08;24.80;56.20
49379;DHT22;35254;47.990;-1.608;2023-06-22T07:42:34;24.80;55.80
49379;DHT22;35254;47.990;-1.608;2023-06-22T07:45:00;24.70;56.30
49379;DHT22;35254;47.990;-1.608;2023-06-22T07:47:27;24.80;56.40
49379;DHT22;35254;47.990;-1.608;2023-06-22T07:49:54;24.70;56.30
49379;DHT22;35254;47.990;-1.608;2023-06-22T07:52:21;24.80;56.50
49379;DHT22;35254;47.990;-1.608;2023-06-22T07:54:47;24.80;56.60
49379;DHT22;35254;47.990;-1.608;2023-06-22T07:57:12;24.80;57.20
49379;DHT22;35254;47.990;-1.608;2023-06-22T07:59:38;24.80;56.50
49379;DHT22;35254;47.990;-1.608;2023-06-22T08:02:04;24.70;56.20
49379;DHT22;35254;47.990;-1.608;2023-06-22T08:04:30;24.70;56.40
49379;DHT22;35254;47.990;-1.608;2023-06-22T08:06:57;24.70;56.10
49379;DHT22;35254;47.990;-1.608;2023-06-22T08:09:23;24.70;56.90
49379;DHT22;35254;47.990;-1.608;2023-06-22T08:11:48;24.70;56.50
49379;DHT22;35254;47.990;-1.608;2023-06-22T08:14:14;24.70;56.20
49379;DHT22;35254;47.990;-1.608;2023-06-22T08:16:41;24.70;56.10
49379;DHT22;35254;47.990;-1.608;2023-06-22T08:19:07;24.70;56.70
49379;DHT22;35254;47.990;-1.608;2023-06-22T08:21:33;24.70;56.50
49379;DHT22;35254;47.990;-1.608;2023-06-22T08:23:58;24.70;56.70
49379;DHT22;35254;47.990;-1.608;2023-06-22T08:26:24;24.70;57.00
49379;DHT22;35254;47.990;-1.608;2023-06-22T08:28:49;24.70;56.40
49379;DHT22;35254;47.990;-1.608;2023-06-22T08:31:15;24.70;57.20
49379;DHT22;35254;47.990;-1.608;2023-06-22T08:33:41;24.70;57.20
49379;DHT22;35254;47.990;-1.608;2023-06-22T08:36:08;24.70;56.90
49379;DHT22;35254;47.990;-1.608;2023-06-22T08:38:36;24.80;56.70
49379;DHT22;35254;47.990;-1.608;2023-06-22T08:41:01;24.80;57.10
49379;DHT22;35254;47.990;-1.608;2023-06-22T08:43:28;24.70;56.60
49379;DHT22;35254;47.990;-1.608;2023-06-22T08:45:53;24.70;56.70
49379;DHT22;35254;47.990;-1.608;2023-06-22T08:48:19;24.70;56.70
49379;DHT22;35254;47.990;-1.608;2023-06-22T08:50:45;24.70;56.60
49379;DHT22;35254;47.990;-1.608;2023-06-22T08:53:10;24.70;55.80
49379;DHT22;35254;47.990;-1.608;2023-06-22T08:55:36;24.80;56.20
49379;DHT22;35254;47.990;-1.608;2023-06-22T08:58:02;24.80;56.60
49379;DHT22;35254;47.990;-1.608;2023-06-22T09:00:29;24.70;56.40
49379;DHT22;35254;47.990;-1.608;2023-06-22T09:02:58;24.80;58.50
49379;DHT22;35254;47.990;-1.608;2023-06-22T09:05:24;24.80;60.40
49379;DHT22;35254;47.990;-1.608;2023-06-22T09:07:51;24.80;60.30
49379;DHT22;35254;47.990;-1.608;2023-06-22T09:10:17;24.90;60.60
49379;DHT22;35254;47.990;-1.608;2023-06-22T09:12:43;24.80;61.80
49379;DHT22;35254;47.990;-1.608;2023-06-22T09:15:09;24.80;60.90
49379;DHT22;35254;47.990;-1.608;2023-06-22T09:17:35;24.90;61.80
49379;DHT22;35254;47.990;-1.608;2023-06-22T09:20:02;24.90;61.90
49379;DHT22;35254;47.990;-1.608;2023-06-22T09:22:31;24.90;62.60
49379;DHT22;35254;47.990;-1.608;2023-06-22T09:24:57;24.90;61.40
49379;DHT22;35254;47.990;-1.608;2023-06-22T09:27:23;24.90;62.30
49379;DHT22;35254;47.990;-1.608;2023-06-22T09:29:49;24.90;63.30
49379;DHT22;35254;47.990;-1.608;2023-06-22T09:32:15;24.90;63.00
49379;DHT22;35254;47.990;-1.608;2023-06-22T09:34:41;25.00;62.80
49379;DHT22;35254;47.990;-1.608;2023-06-22T09:37:06;24.90;62.80
49379;DHT22;35254;47.990;-1.608;2023-06-22T09:39:32;24.90;62.50
49379;DHT22;35254;47.990;-1.608;2023-06-22T09:41:59;24.90;62.50
49379;DHT22;35254;47.990;-1.608;2023-06-22T09:44:25;25.00;63.30
49379;DHT22;35254;47.990;-1.608;2023-06-22T09:46:51;24.90;62.90
49379;DHT22;35254;47.990;-1.608;2023-06-22T09:49:16;24.90;62.00
49379;DHT22;35254;47.990;-1.608;2023-06-22T09:51:42;25.00;62.20
49379;DHT22;35254;47.990;-1.608;2023-06-22T09:54:08;24.90;62.20
49379;DHT22;35254;47.990;-1.608;2023-06-22T09:56:33;25.00;62.30
49379;DHT22;35254;47.990;-1.608;2023-06-22T09:58:59;24.90;62.50
49379;DHT22;35254;47.990;-1.608;2023-06-22T10:01:24;25.00;63.00
49379;DHT22;35254;47.990;-1.608;2023-06-22T10:03:52;24.90;62.40
49379;DHT22;35254;47.990;-1.608;2023-06-22T10:06:22;25.00;62.20
49379;DHT22;35254;47.990;-1.608;2023-06-22T10:08:47;25.00;62.60
49379;DHT22;35254;47.990;-1.608;2023-06-22T10:11:14;25.00;62.80
49379;DHT22;35254;47.990;-1.608;2023-06-22T10:13:39;25.00;63.20
49379;DHT22;35254;47.990;-1.608;2023-06-22T10:16:05;25.00;62.50
49379;DHT22;35254;47.990;-1.608;2023-06-22T10:18:31;25.00;62.80
49379;DHT22;35254;47.990;-1.608;2023-06-22T10:20:56;25.00;63.20
49379;DHT22;35254;47.990;-1.608;2023-06-22T10:23:22;25.00;63.10
49379;DHT22;35254;47.990;-1.608;2023-06-22T10:25:48;25.00;59.70
49379;DHT22;35254;47.990;-1.608;2023-06-22T10:28:14;25.00;60.10
49379;DHT22;35254;47.990;-1.608;2023-06-22T10:30:40;25.00;60.10
49379;DHT22;35254;47.990;-1.608;2023-06-22T10:33:10;25.00;61.10
49379;DHT22;35254;47.990;-1.608;2023-06-22T10:35:36;25.00;59.90
49379;DHT22;35254;47.990;-1.608;2023-06-22T10:38:06;25.00;60.20
49379;DHT22;35254;47.990;-1.608;2023-06-22T10:40:32;25.00;60.20
49379;DHT22;35254;47.990;-1.608;2023-06-22T10:42:57;25.00;59.70
49379;DHT22;35254;47.990;-1.608;2023-06-22T10:45:23;25.00;60.60
49379;DHT22;35254;47.990;-1.608;2023-06-22T10:47:49;25.00;60.90
49379;DHT22;35254;47.990;-1.608;2023-06-22T10:50:15;25.00;60.80
49379;DHT22;35254;47.990;-1.608;2023-06-22T10:52:40;25.00;59.90
49379;DHT22;35254;47.990;-1.608;2023-06-22T10:55:09;25.00;59.70
49379;DHT22;35254;47.990;-1.608;2023-06-22T10:57:35;25.10;59.90
49379;DHT22;35254;47.990;-1.608;2023-06-22T11:00:02;25.10;59.90
49379;DHT22;35254;47.990;-1.608;2023-06-22T11:02:31;25.10;59.80
49379;DHT22;35254;47.990;-1.608;2023-06-22T11:04:56;25.10;59.90
49379;DHT22;35254;47.990;-1.608;2023-06-22T11:07:26;25.10;60.30
49379;DHT22;35254;47.990;-1.608;2023-06-22T11:09:54;25.10;60.10
49379;DHT22;35254;47.990;-1.608;2023-06-22T11:12:19;25.10;59.80
49379;DHT22;35254;47.990;-1.608;2023-06-22T11:14:45;25.10;59.70
49379;DHT22;35254;47.990;-1.608;2023-06-22T11:17:10;25.10;59.80
49379;DHT22;35254;47.990;-1.608;2023-06-22T11:19:36;25.10;59.50
49379;DHT22;35254;47.990;-1.608;2023-06-22T11:22:02;25.10;59.40
49379;DHT22;35254;47.990;-1.608;2023-06-22T11:24:28;25.10;59.40
49379;DHT22;35254;47.990;-1.608;2023-06-22T11:26:54;25.10;59.50
49379;DHT22;35254;47.990;-1.608;2023-06-22T11:29:20;25.10;59.50
49379;DHT22;35254;47.990;-1.608;2023-06-22T11:31:45;25.10;59.40
49379;DHT22;35254;47.990;-1.608;2023-06-22T11:34:11;25.10;59.50
49379;DHT22;35254;47.990;-1.608;2023-06-22T11:36:36;25.10;59.60
49379;DHT22;35254;47.990;-1.608;2023-06-22T11:39:02;25.20;59.40
49379;DHT22;35254;47.990;-1.608;2023-06-22T11:41:28;25.20;59.60
49379;DHT22;35254;47.990;-1.608;2023-06-22T11:43:54;25.20;59.40
49379;DHT22;35254;47.990;-1.608;2023-06-22T11:46:19;25.20;59.40
49379;DHT22;35254;47.990;-1.608;2023-06-22T11:48:45;25.20;59.80
49379;DHT22;35254;47.990;-1.608;2023-06-22T11:51:11;25.20;60.40
49379;DHT22;35254;47.990;-1.608;2023-06-22T11:53:37;25.20;60.10
49379;DHT22;35254;47.990;-1.608;2023-06-22T11:56:03;25.10;60.30
49379;DHT22;35254;47.990;-1.608;2023-06-22T11:58:29;25.20;60.00
49379;DHT22;35254;47.990;-1.608;2023-06-22T12:00:54;25.20;59.80
49379;DHT22;35254;47.990;-1.608;2023-06-22T12:03:20;25.20;59.60
49379;DHT22;35254;47.990;-1.608;2023-06-22T12:05:50;25.20;59.70
49379;DHT22;35254;47.990;-1.608;2023-06-22T12:08:19;25.20;59.50
49379;DHT22;35254;47.990;-1.608;2023-06-22T12:10:44;25.20;59.40
49379;DHT22;35254;47.990;-1.608;2023-06-22T12:13:10;25.20;59.40
49379;DHT22;35254;47.990;-1.608;2023-06-22T12:15:36;25.20;59.40
49379;DHT22;35254;47.990;-1.608;2023-06-22T12:18:01;25.20;59.50
49379;DHT22;35254;47.990;-1.608;2023-06-22T12:20:28;25.20;59.30
49379;DHT22;35254;47.990;-1.608;2023-06-22T12:22:53;25.20;59.40
49379;DHT22;35254;47.990;-1.608;2023-06-22T12:25:22;25.20;59.30
49379;DHT22;35254;47.990;-1.608;2023-06-22T12:27:48;25.20;59.30
49379;DHT22;35254;47.990;-1.608;2023-06-22T12:30:16;25.20;59.40
49379;DHT22;35254;47.990;-1.608;2023-06-22T12:32:44;25.20;59.40
49379;DHT22;35254;47.990;-1.608;2023-06-22T12:35:10;25.20;59.50
49379;DHT22;35254;47.990;-1.608;2023-06-22T12:37:42;25.20;59.50
49379;DHT22;35254;47.990;-1.608;2023-06-22T12:40:09;25.20;59.40
49379;DHT22;35254;47.990;-1.608;2023-06-22T12:42:35;25.30;59.40
49379;DHT22;35254;47.990;-1.608;2023-06-22T12:45:01;25.30;59.60
49379;DHT22;35254;47.990;-1.608;2023-06-22T12:47:26;25.30;59.30
49379;DHT22;35254;47.990;-1.608;2023-06-22T12:49:52;25.30;59.40
49379;DHT22;35254;47.990;-1.608;2023-06-22T12:52:17;25.30;59.30
49379;DHT22;35254;47.990;-1.608;2023-06-22T12:54:43;25.30;59.90
49379;DHT22;35254;47.990;-1.608;2023-06-22T12:57:09;25.30;59.80
49379;DHT22;35254;47.990;-1.608;2023-06-22T12:59:34;25.40;60.30
49379;DHT22;35254;47.990;-1.608;2023-06-22T13:02:00;25.30;60.70
49379;DHT22;35254;47.990;-1.608;2023-06-22T13:04:26;25.30;60.70
49379;DHT22;35254;47.990;-1.608;2023-06-22T13:06:51;25.40;60.80
49379;DHT22;35254;47.990;-1.608;2023-06-22T13:09:18;25.40;60.90
49379;DHT22;35254;47.990;-1.608;2023-06-22T13:11:44;25.40;60.80
49379;DHT22;35254;47.990;-1.608;2023-06-22T13:14:10;25.40;61.10
49379;DHT22;35254;47.990;-1.608;2023-06-22T13:16:36;25.40;61.10
49379;DHT22;35254;47.990;-1.608;2023-06-22T13:19:02;25.50;61.00
49379;DHT22;35254;47.990;-1.608;2023-06-22T13:21:28;25.50;61.00
49379;DHT22;35254;47.990;-1.608;2023-06-22T13:23:53;25.50;61.30
49379;DHT22;35254;47.990;-1.608;2023-06-22T13:26:20;25.50;61.40
49379;DHT22;35254;47.990;-1.608;2023-06-22T13:28:45;25.50;61.60
49379;DHT22;35254;47.990;-1.608;2023-06-22T13:31:11;25.50;61.80
49379;DHT22;35254;47.990;-1.608;2023-06-22T13:33:38;25.50;61.40
49379;DHT22;35254;47.990;-1.608;2023-06-22T13:36:04;25.50;61.50
49379;DHT22;35254;47.990;-1.608;2023-06-22T13:38:31;25.50;61.70
49379;DHT22;35254;47.990;-1.608;2023-06-22T13:40:57;25.50;61.80
49379;DHT22;35254;47.990;-1.608;2023-06-22T13:43:26;25.50;61.50
49379;DHT22;35254;47.990;-1.608;2023-06-22T13:45:52;25.50;61.30
49379;DHT22;35254;47.990;-1.608;2023-06-22T13:48:17;25.60;61.40
49379;DHT22;35254;47.990;-1.608;2023-06-22T13:50:43;25.60;61.40
49379;DHT22;35254;47.990;-1.608;2023-06-22T13:53:09;25.60;61.70
49379;DHT22;35254;47.990;-1.608;2023-06-22T13:55:35;25.60;61.30
49379;DHT22;35254;47.990;-1.608;2023-06-22T13:58:00;25.60;61.40
49379;DHT22;35254;47.990;-1.608;2023-06-22T14:00:26;25.60;61.60
49379;DHT22;35254;47.990;-1.608;2023-06-22T14:02:53;25.60;61.80
49379;DHT22;35254;47.990;-1.608;2023-06-22T14:05:19;25.60;61.00
49379;DHT22;35254;47.990;-1.608;2023-06-22T14:07:45;25.60;61.50
49379;DHT22;35254;47.990;-1.608;2023-06-22T14:10:10;25.70;61.10
49379;DHT22;35254;47.990;-1.608;2023-06-22T14:12:36;25.70;61.90
49379;DHT22;35254;47.990;-1.608;2023-06-22T14:15:02;25.70;61.80
49379;DHT22;35254;47.990;-1.608;2023-06-22T14:17:28;25.70;61.80
49379;DHT22;35254;47.990;-1.608;2023-06-22T14:19:54;25.70;61.60
49379;DHT22;35254;47.990;-1.608;2023-06-22T14:22:20;25.70;61.70
49379;DHT22;35254;47.990;-1.608;2023-06-22T14:24:47;25.70;61.50
49379;DHT22;35254;47.990;-1.608;2023-06-22T14:27:13;25.70;62.70
49379;DHT22;35254;47.990;-1.608;2023-06-22T14:29:39;25.70;61.20
49379;DHT22;35254;47.990;-1.608;2023-06-22T14:32:05;25.70;62.10
49379;DHT22;35254;47.990;-1.608;2023-06-22T14:34:32;25.80;62.20
49379;DHT22;35254;47.990;-1.608;2023-06-22T14:36:58;25.80;62.60
49379;DHT22;35254;47.990;-1.608;2023-06-22T14:39:24;25.80;62.50
49379;DHT22;35254;47.990;-1.608;2023-06-22T14:41:50;25.80;62.10
49379;DHT22;35254;47.990;-1.608;2023-06-22T14:44:15;25.80;62.00
49379;DHT22;35254;47.990;-1.608;2023-06-22T14:46:41;25.80;61.00
49379;DHT22;35254;47.990;-1.608;2023-06-22T14:49:06;25.80;61.50
49379;DHT22;35254;47.990;-1.608;2023-06-22T14:51:32;25.80;60.60
49379;DHT22;35254;47.990;-1.608;2023-06-22T14:53:58;25.80;60.90
49379;DHT22;35254;47.990;-1.608;2023-06-22T14:56:23;25.80;61.30
49379;DHT22;35254;47.990;-1.608;2023-06-22T14:58:49;25.80;61.60
49379;DHT22;35254;47.990;-1.608;2023-06-22T15:01:17;25.80;61.00
49379;DHT22;35254;47.990;-1.608;2023-06-22T15:03:43;25.80;61.40
49379;DHT22;35254;47.990;-1.608;2023-06-22T15:06:09;25.80;61.00
49379;DHT22;35254;47.990;-1.608;2023-06-22T15:08:37;25.90;61.30
49379;DHT22;35254;47.990;-1.608;2023-06-22T15:11:04;25.90;60.10
49379;DHT22;35254;47.990;-1.608;2023-06-22T15:13:31;25.90;60.40
49379;DHT22;35254;47.990;-1.608;2023-06-22T15:16:03;25.90;60.20